createdAt,value
2023-03-24T00:03:38.370Z,45215.63
2023-03-24T00:08:44.269Z,45199.66
2023-03-24T00:13:50.985Z,45165.72
2023-03-24T00:18:55.908Z,45203.66
2023-03-24T00:24:01.516Z,45193.69
2023-03-24T00:29:08.967Z,45185.69
2023-03-24T00:34:13.857Z,45201.66
2023-03-24T00:39:19.186Z,45173.72
2023-03-24T00:44:25.196Z,45173.72
2023-03-24T00:49:43.400Z,45151.75
2023-03-24T00:54:48.436Z,45151.75
2023-03-24T00:59:56.283Z,45197.66
2023-03-24T01:05:02.559Z,45149.75
2023-03-24T01:10:08.691Z,45179.69
2023-03-24T01:15:19.288Z,45147.75
2023-03-24T01:20:25.395Z,45165.72
2023-03-24T01:25:30.730Z,45163.72
2023-03-24T01:30:37.179Z,45181.69
2023-03-24T01:35:41.488Z,45179.69
2023-03-24T01:40:48.093Z,45155.75
2023-03-24T01:46:19.005Z,45157.75
2023-03-24T01:51:26.151Z,45189.69
2023-03-24T01:56:34.992Z,45185.69
2023-03-24T02:01:41.408Z,45187.69
2023-03-24T02:07:06.800Z,45191.69
2023-03-24T02:12:11.301Z,45169.72
2023-03-24T02:17:36.234Z,45133.78
2023-03-24T02:23:31.564Z,45169.72
2023-03-24T02:28:45.541Z,45181.69
2023-03-24T02:34:46.365Z,45159.72
2023-03-24T02:40:04.405Z,45179.69
2023-03-24T02:45:19.474Z,45153.75
2023-03-24T02:50:31.204Z,45179.69
2023-03-24T02:55:43.292Z,45207.66
2023-03-24T03:00:51.722Z,45209.66
2023-03-24T03:06:21.752Z,45199.66
2023-03-24T03:11:27.509Z,45197.66
2023-03-24T03:16:39.368Z,45167.72
2023-03-24T03:21:47.428Z,45171.72
2023-03-24T03:26:57.814Z,45129.78
2023-03-24T03:32:08.010Z,45075.88
2023-03-24T03:37:21.837Z,45049.94
2023-03-24T03:42:27.727Z,44964.09
2023-03-24T03:47:33.890Z,44876.25
2023-03-24T03:52:42.051Z,44776.44
2023-03-24T03:57:48.492Z,44700.56
2023-03-24T04:03:28.001Z,44620.72
2023-03-24T04:08:46.716Z,44407.13
2023-03-24T04:14:37.572Z,44297.34
2023-03-24T04:20:14.391Z,44231.47
2023-03-24T04:25:26.022Z,44097.72
2023-03-24T04:30:43.130Z,43810.31
2023-03-24T04:35:56.748Z,43674.63
2023-03-24T04:41:12.188Z,43506.97
2023-03-24T04:46:19.380Z,43379.25
2023-03-24T04:51:50.218Z,43197.66
2023-03-24T04:57:01.943Z,43040.00
2023-03-24T05:02:27.905Z,42928.28
2023-03-24T05:07:36.948Z,42628.97
2023-03-24T05:12:46.607Z,42533.22
2023-03-24T05:17:59.127Z,42555.16
2023-03-24T05:23:03.458Z,42425.47
2023-03-24T05:28:07.846Z,42217.97
2023-03-24T05:33:14.765Z,41998.53
2023-03-24T05:38:19.266Z,41735.22
2023-03-24T05:43:28.007Z,41663.41
2023-03-24T05:48:47.055Z,41487.88
2023-03-24T05:53:56.350Z,41332.28
2023-03-24T05:59:09.342Z,41170.72
2023-03-24T06:04:33.700Z,41013.16
2023-03-24T06:09:51.069Z,40915.44
2023-03-24T06:14:57.067Z,40933.41
2023-03-24T06:20:06.080Z,40863.59
2023-03-24T06:25:30.245Z,40769.88
2023-03-24T06:30:47.654Z,40751.91
2023-03-24T06:36:01.285Z,40753.91
2023-03-24T06:41:08.072Z,40739.94
2023-03-24T06:46:13.294Z,40690.09
2023-03-24T06:51:22.401Z,40596.38
2023-03-24T06:56:27.481Z,40554.50
2023-03-24T07:01:36.504Z,40626.28
2023-03-24T07:07:12.492Z,40805.75
2023-03-24T07:12:24.903Z,40775.84
2023-03-24T07:17:29.985Z,40853.63
2023-03-24T07:22:59.752Z,41067.03
2023-03-24T07:28:20.409Z,41138.81
2023-03-24T07:33:25.524Z,41208.63
2023-03-24T07:38:31.249Z,41206.63
2023-03-24T07:43:40.734Z,41228.56
2023-03-24T07:49:18.234Z,41304.38
2023-03-24T07:54:35.666Z,41378.16
2023-03-24T07:59:40.149Z,41557.69
2023-03-24T08:04:53.883Z,41537.75
2023-03-24T08:10:32.202Z,41707.28
2023-03-24T08:15:36.767Z,41799.03
2023-03-24T08:20:41.192Z,41972.59
2023-03-24T08:25:47.886Z,42214.00
2023-03-24T08:30:52.467Z,42411.50
2023-03-24T08:35:58.069Z,42680.84
2023-03-24T08:41:07.044Z,42866.41
2023-03-24T08:46:13.675Z,42966.19
2023-03-24T08:51:19.314Z,43095.88
2023-03-24T08:56:25.990Z,43179.69
2023-03-24T09:01:30.320Z,43335.34
2023-03-24T09:06:35.162Z,43299.44
2023-03-24T09:11:40.934Z,43415.16
2023-03-24T09:16:48.814Z,43510.97
2023-03-24T09:21:53.229Z,43550.88
2023-03-24T09:26:59.202Z,43606.75
2023-03-24T09:32:03.461Z,43652.66
2023-03-24T09:37:08.306Z,43606.75
2023-03-24T09:42:20.472Z,43718.53
2023-03-24T09:47:30.713Z,43660.63
2023-03-24T09:52:40.722Z,43710.53
2023-03-24T09:57:49.423Z,43736.47
2023-03-24T10:02:56.868Z,43718.53
2023-03-24T10:08:12.517Z,43798.34
2023-03-24T10:13:23.304Z,43832.28
2023-03-24T10:18:39.376Z,43846.25
2023-03-24T10:23:56.078Z,43882.19
2023-03-24T10:29:23.623Z,43940.06
2023-03-24T10:34:31.219Z,43991.94
2023-03-24T10:39:44.039Z,44025.88
2023-03-24T10:44:53.793Z,44089.75
2023-03-24T10:50:11.865Z,44103.72
2023-03-24T10:55:21.151Z,44057.81
2023-03-24T11:00:32.243Z,44133.66
2023-03-24T11:05:39.356Z,44149.63
2023-03-24T11:10:44.539Z,44137.66
2023-03-24T11:15:59.186Z,44091.75
2023-03-24T11:21:06.398Z,44143.63
2023-03-24T11:26:15.953Z,44175.56
2023-03-24T11:31:26.056Z,44165.59
2023-03-24T11:36:47.309Z,44185.56
2023-03-24T11:42:05.998Z,44175.56
2023-03-24T11:47:15.161Z,44259.41
2023-03-24T11:52:24.872Z,44223.47
2023-03-24T11:57:47.409Z,44229.47
2023-03-24T12:03:23.452Z,44301.34
2023-03-24T12:08:43.056Z,44299.34
2023-03-24T12:13:50.752Z,44325.28
2023-03-24T12:19:24.241Z,44253.44
2023-03-24T12:24:40.474Z,44319.28
2023-03-24T12:30:00.652Z,44343.25
2023-03-24T12:35:39.538Z,44361.22
2023-03-24T12:41:03.992Z,44367.19
2023-03-24T12:46:22.495Z,44419.09
2023-03-24T12:51:35.209Z,44409.13
2023-03-24T12:56:47.090Z,44407.13
2023-03-24T13:01:55.605Z,44377.19
2023-03-24T13:07:06.722Z,44361.22
2023-03-24T13:12:17.189Z,44373.19
2023-03-24T13:17:28.125Z,44409.13
2023-03-24T13:22:35.539Z,44395.16
2023-03-24T13:27:44.421Z,44369.19
2023-03-24T13:32:52.333Z,44341.25
2023-03-24T13:38:04.529Z,44373.19
2023-03-24T13:43:14.371Z,44305.31
2023-03-24T13:48:22.001Z,44335.25
2023-03-24T13:53:39.439Z,44353.22
2023-03-24T13:58:52.400Z,44367.19
2023-03-24T14:04:32.193Z,44393.16
2023-03-24T14:09:56.325Z,44407.13
2023-03-24T14:15:22.379Z,44405.13
2023-03-24T14:20:35.551Z,44367.19
2023-03-24T14:25:39.759Z,44407.13
2023-03-24T14:31:02.270Z,44397.16
2023-03-24T14:36:12.366Z,44413.09
2023-03-24T14:41:23.570Z,44530.88
2023-03-24T14:46:39.543Z,44554.84
2023-03-24T14:51:49.738Z,44538.88
2023-03-24T14:56:56.176Z,44568.81
2023-03-24T15:02:07.142Z,44626.69
2023-03-24T15:07:15.035Z,44678.59
2023-03-24T15:12:19.438Z,44648.66
2023-03-24T15:17:26.766Z,44612.72
2023-03-24T15:22:42.903Z,44570.81
2023-03-24T15:27:52.288Z,44608.75
2023-03-24T15:32:58.334Z,44628.69
2023-03-24T15:38:04.187Z,44668.63
2023-03-24T15:43:18.342Z,44724.53
2023-03-24T15:48:26.830Z,44686.59
2023-03-24T15:53:39.728Z,44676.59
2023-03-24T15:58:48.969Z,44648.66
2023-03-24T16:03:56.466Z,44632.69
2023-03-24T16:09:03.259Z,44572.81
2023-03-24T16:14:24.529Z,44486.97
2023-03-24T16:19:30.515Z,44405.13
2023-03-24T16:24:34.913Z,44297.34
2023-03-24T16:29:39.055Z,44057.81
2023-03-24T16:34:44.899Z,43806.34
2023-03-24T16:39:49.008Z,43668.63
2023-03-24T16:44:53.876Z,43249.53
2023-03-24T16:49:59.635Z,43143.78
2023-03-24T16:55:04.235Z,42970.19
2023-03-24T17:00:11.786Z,42918.28
2023-03-24T17:05:24.524Z,42686.84
2023-03-24T17:10:29.537Z,42780.63
2023-03-24T17:15:33.929Z,42553.16
2023-03-24T17:20:40.766Z,42297.78
2023-03-24T17:25:46.536Z,42070.34
2023-03-24T17:30:51.329Z,41974.59
2023-03-24T17:35:57.624Z,42042.41
2023-03-24T17:41:02.182Z,42138.19
2023-03-24T17:46:06.797Z,42214.00
2023-03-24T17:51:12.628Z,42208.00
2023-03-24T17:56:16.939Z,42321.72
2023-03-24T18:01:21.484Z,42387.56
2023-03-24T18:06:27.795Z,42383.56
2023-03-24T18:11:32.376Z,42365.63
2023-03-24T18:16:37.240Z,42379.56
2023-03-24T18:21:42.853Z,42393.53
2023-03-24T18:26:49.169Z,42379.56
2023-03-24T18:31:55.005Z,42383.56
2023-03-24T18:37:00.788Z,42413.50
2023-03-24T18:42:05.106Z,42411.50
2023-03-24T18:47:11.610Z,42425.47
2023-03-24T18:52:18.328Z,42423.47
2023-03-24T18:57:22.633Z,42429.47
2023-03-24T19:02:27.596Z,42419.47
2023-03-24T19:07:33.855Z,42449.41
2023-03-24T19:12:38.350Z,42445.41
2023-03-24T19:17:43.268Z,42481.34
2023-03-24T19:22:49.002Z,42459.38
2023-03-24T19:27:53.345Z,42445.41
2023-03-24T19:32:58.243Z,42443.41
2023-03-24T19:38:04.481Z,42457.38
2023-03-24T19:43:08.855Z,42437.44
2023-03-24T19:48:13.694Z,42425.47
2023-03-24T19:53:20.198Z,42409.50
2023-03-24T19:58:24.747Z,42413.50
2023-03-24T20:03:29.290Z,42441.44
2023-03-24T20:08:35.096Z,42465.38
2023-03-24T20:13:39.498Z,42425.47
2023-03-24T20:18:44.342Z,42423.47
2023-03-24T20:23:49.951Z,42407.50
2023-03-24T20:28:54.460Z,42391.56
2023-03-24T20:33:59.480Z,42417.50
2023-03-24T20:39:06.190Z,42405.50
2023-03-24T20:44:10.577Z,42385.56
2023-03-24T20:49:16.833Z,42413.50
2023-03-24T20:54:23.047Z,42407.50
2023-03-24T20:59:27.196Z,42403.53
2023-03-24T21:04:31.367Z,42411.50
2023-03-24T21:09:37.522Z,42369.59
2023-03-24T21:14:42.654Z,42365.63
2023-03-24T21:19:47.311Z,42377.59
2023-03-24T21:24:53.668Z,42367.59
2023-03-24T21:29:57.828Z,42401.53
2023-03-24T21:35:02.247Z,42411.50
2023-03-24T21:40:10.658Z,42401.53
2023-03-24T21:45:17.140Z,42419.47
2023-03-24T21:50:23.495Z,42409.50
2023-03-24T21:55:32.009Z,42395.53
2023-03-24T22:00:40.235Z,42431.44
2023-03-24T22:05:45.746Z,42383.56
2023-03-24T22:10:54.532Z,42393.53
2023-03-24T22:16:01.296Z,42387.56
2023-03-24T22:21:08.778Z,42357.63
2023-03-24T22:26:17.049Z,42385.56
2023-03-24T22:31:23.272Z,42375.59
2023-03-24T22:36:27.426Z,42355.63
2023-03-24T22:41:33.276Z,42321.72
2023-03-24T22:46:37.756Z,42365.63
2023-03-24T22:51:42.899Z,42315.75
2023-03-24T22:56:48.816Z,42359.63
2023-03-24T23:02:06.440Z,42361.63
2023-03-24T23:07:14.005Z,42315.75
2023-03-24T23:12:19.564Z,42285.81
2023-03-24T23:17:27.395Z,42267.84
2023-03-24T23:22:33.732Z,42281.81
2023-03-24T23:27:39.986Z,42235.94
2023-03-24T23:32:47.229Z,42299.78
2023-03-24T23:37:52.148Z,42231.94
2023-03-24T23:42:58.038Z,42249.91
2023-03-24T23:48:02.231Z,42229.94
2023-03-24T23:53:06.755Z,42225.97
2023-03-24T23:58:12.317Z,42168.09
